sensor_id;sensor_type;location;lat;lon;timestamp;temperature;humidity
16955;DHT22;8594;52.052;8.354;2024-01-11T00:00:02;-3.60;99.90
16955;DHT22;8594;52.052;8.354;2024-01-11T00:02:30;-3.60;99.90
16955;DHT22;8594;52.052;8.354;2024-01-11T00:04:57;-3.70;99.90
16955;DHT22;8594;52.052;8.354;2024-01-11T00:07:24;-3.70;99.90
16955;DHT22;8594;52.052;8.354;2024-01-11T00:09:50;-3.90;99.90
16955;DHT22;8594;52.052;8.354;2024-01-11T00:12:17;-3.80;99.90
16955;DHT22;8594;52.052;8.354;2024-01-11T00:14:44;-3.70;99.90
16955;DHT22;8594;52.052;8.354;2024-01-11T00:17:10;-3.60;99.90
16955;DHT22;8594;52.052;8.354;2024-01-11T00:19:39;-3.40;99.90
16955;DHT22;8594;52.052;8.354;2024-01-11T00:22:05;-3.30;99.90
16955;DHT22;8594;52.052;8.354;2024-01-11T00:24:32;-3.10;99.90
16955;DHT22;8594;52.052;8.354;2024-01-11T00:26:59;-2.90;99.90
16955;DHT22;8594;52.052;8.354;2024-01-11T00:29:25;-2.80;99.90
16955;DHT22;8594;52.052;8.354;2024-01-11T00:31:53;-3.00;99.90
16955;DHT22;8594;52.052;8.354;2024-01-11T00:34:21;-3.00;99.90
16955;DHT22;8594;52.052;8.354;2024-01-11T00:36:49;-3.00;99.90
16955;DHT22;8594;52.052;8.354;2024-01-11T00:39:15;-2.90;99.90
16955;DHT22;8594;52.052;8.354;2024-01-11T00:41:42;-2.70;99.90
16955;DHT22;8594;52.052;8.354;2024-01-11T00:44:09;-2.60;99.90
16955;DHT22;8594;52.052;8.354;2024-01-11T00:46:36;-2.50;99.90
16955;DHT22;8594;52.052;8.354;2024-01-11T00:49:03;-2.50;99.90
16955;DHT22;8594;52.052;8.354;2024-01-11T00:51:30;-2.70;99.90
16955;DHT22;8594;52.052;8.354;2024-01-11T00:53:58;-2.70;99.90
16955;DHT22;8594;52.052;8.354;2024-01-11T00:56:25;-2.90;99.90
16955;DHT22;8594;52.052;8.354;2024-01-11T00:58:52;-3.20;99.90
16955;DHT22;8594;52.052;8.354;2024-01-11T01:01:19;-3.00;99.90
16955;DHT22;8594;52.052;8.354;2024-01-11T01:03:46;-2.90;99.90
16955;DHT22;8594;52.052;8.354;2024-01-11T01:06:13;-2.90;99.90
16955;DHT22;8594;52.052;8.354;2024-01-11T01:08:39;-2.90;99.90
16955;DHT22;8594;52.052;8.354;2024-01-11T01:11:07;-2.90;99.90
16955;DHT22;8594;52.052;8.354;2024-01-11T01:13:34;-2.80;99.90
16955;DHT22;8594;52.052;8.354;2024-01-11T01:16:01;-2.90;99.90
16955;DHT22;8594;52.052;8.354;2024-01-11T01:18:27;-2.90;99.90
16955;DHT22;8594;52.052;8.354;2024-01-11T01:20:55;-2.80;99.90
16955;DHT22;8594;52.052;8.354;2024-01-11T01:23:22;-2.70;99.90
16955;DHT22;8594;52.052;8.354;2024-01-11T01:25:49;-2.90;99.90
16955;DHT22;8594;52.052;8.354;2024-01-11T01:28:17;-2.90;99.90
16955;DHT22;8594;52.052;8.354;2024-01-11T01:30:43;-2.80;99.90
16955;DHT22;8594;52.052;8.354;2024-01-11T01:33:10;-3.10;99.90
16955;DHT22;8594;52.052;8.354;2024-01-11T01:35:37;-3.30;99.90
16955;DHT22;8594;52.052;8.354;2024-01-11T01:38:03;-3.30;99.90
16955;DHT22;8594;52.052;8.354;2024-01-11T01:40:30;-3.10;99.90
16955;DHT22;8594;52.052;8.354;2024-01-11T01:42:58;-3.10;99.90
16955;DHT22;8594;52.052;8.354;2024-01-11T01:45:27;-3.00;99.90
16955;DHT22;8594;52.052;8.354;2024-01-11T01:47:55;-3.00;99.90
16955;DHT22;8594;52.052;8.354;2024-01-11T01:50:22;-2.90;99.90
16955;DHT22;8594;52.052;8.354;2024-01-11T01:52:50;-3.10;99.90
16955;DHT22;8594;52.052;8.354;2024-01-11T01:55:17;-3.00;99.90
16955;DHT22;8594;52.052;8.354;2024-01-11T01:57:46;-3.00;99.90
16955;DHT22;8594;52.052;8.354;2024-01-11T02:00:14;-3.00;99.90
16955;DHT22;8594;52.052;8.354;2024-01-11T02:02:44;-2.70;99.90
16955;DHT22;8594;52.052;8.354;2024-01-11T02:05:12;-2.50;99.90
16955;DHT22;8594;52.052;8.354;2024-01-11T02:07:40;-2.60;99.90
16955;DHT22;8594;52.052;8.354;2024-01-11T02:10:08;-2.50;99.90
16955;DHT22;8594;52.052;8.354;2024-01-11T02:12:35;-2.30;99.90
16955;DHT22;8594;52.052;8.354;2024-01-11T02:15:03;-2.30;99.90
16955;DHT22;8594;52.052;8.354;2024-01-11T02:17:31;-2.50;99.90
16955;DHT22;8594;52.052;8.354;2024-01-11T02:20:00;-2.80;99.90
16955;DHT22;8594;52.052;8.354;2024-01-11T02:22:30;-3.00;99.90
16955;DHT22;8594;52.052;8.354;2024-01-11T02:25:02;-2.90;99.90
16955;DHT22;8594;52.052;8.354;2024-01-11T02:27:29;-3.10;99.90
16955;DHT22;8594;52.052;8.354;2024-01-11T02:29:55;-3.30;99.90
16955;DHT22;8594;52.052;8.354;2024-01-11T02:32:22;-3.20;99.90
16955;DHT22;8594;52.052;8.354;2024-01-11T02:34:50;-3.10;99.90
16955;DHT22;8594;52.052;8.354;2024-01-11T02:37:17;-2.80;99.90
16955;DHT22;8594;52.052;8.354;2024-01-11T02:39:44;-2.70;99.90
16955;DHT22;8594;52.052;8.354;2024-01-11T02:42:12;-2.90;99.90
16955;DHT22;8594;52.052;8.354;2024-01-11T02:44:39;-3.10;99.90
16955;DHT22;8594;52.052;8.354;2024-01-11T02:47:06;-3.40;99.90
16955;DHT22;8594;52.052;8.354;2024-01-11T02:49:33;-3.30;99.90
16955;DHT22;8594;52.052;8.354;2024-01-11T02:51:59;-3.30;99.90
16955;DHT22;8594;52.052;8.354;2024-01-11T02:54:26;-3.40;99.90
16955;DHT22;8594;52.052;8.354;2024-01-11T02:56:53;-3.40;99.90
16955;DHT22;8594;52.052;8.354;2024-01-11T02:59:21;-3.40;99.90
16955;DHT22;8594;52.052;8.354;2024-01-11T03:01:47;-3.60;99.90
16955;DHT22;8594;52.052;8.354;2024-01-11T03:04:14;-3.40;99.90
16955;DHT22;8594;52.052;8.354;2024-01-11T03:06:41;-3.40;99.90
16955;DHT22;8594;52.052;8.354;2024-01-11T03:09:07;-3.10;99.90
16955;DHT22;8594;52.052;8.354;2024-01-11T03:11:34;-3.20;99.90
16955;DHT22;8594;52.052;8.354;2024-01-11T03:14:02;-3.30;99.90
16955;DHT22;8594;52.052;8.354;2024-01-11T03:16:30;-3.30;99.90
16955;DHT22;8594;52.052;8.354;2024-01-11T03:18:57;-3.30;99.90
16955;DHT22;8594;52.052;8.354;2024-01-11T03:21:24;-3.30;99.90
16955;DHT22;8594;52.052;8.354;2024-01-11T03:23:51;-3.30;99.90
16955;DHT22;8594;52.052;8.354;2024-01-11T03:26:18;-3.00;99.90
16955;DHT22;8594;52.052;8.354;2024-01-11T03:28:44;-2.90;99.90
16955;DHT22;8594;52.052;8.354;2024-01-11T03:31:11;-2.90;99.90
16955;DHT22;8594;52.052;8.354;2024-01-11T03:33:39;-3.20;99.90
16955;DHT22;8594;52.052;8.354;2024-01-11T03:36:07;-3.30;99.90
16955;DHT22;8594;52.052;8.354;2024-01-11T03:38:35;-3.40;99.90
16955;DHT22;8594;52.052;8.354;2024-01-11T03:41:01;-3.10;99.90
16955;DHT22;8594;52.052;8.354;2024-01-11T03:43:28;-3.00;99.90
16955;DHT22;8594;52.052;8.354;2024-01-11T03:45:55;-3.10;99.90
16955;DHT22;8594;52.052;8.354;2024-01-11T03:48:22;-3.20;99.90
16955;DHT22;8594;52.052;8.354;2024-01-11T03:50:50;-3.30;99.90
16955;DHT22;8594;52.052;8.354;2024-01-11T03:53:17;-3.20;99.90
16955;DHT22;8594;52.052;8.354;2024-01-11T03:55:44;-3.30;99.90
16955;DHT22;8594;52.052;8.354;2024-01-11T03:58:10;-3.50;99.90
16955;DHT22;8594;52.052;8.354;2024-01-11T04:00:37;-3.20;99.90
16955;DHT22;8594;52.052;8.354;2024-01-11T04:03:05;-2.90;99.90
16955;DHT22;8594;52.052;8.354;2024-01-11T04:05:32;-2.90;99.90
16955;DHT22;8594;52.052;8.354;2024-01-11T04:08:03;-3.00;99.90
16955;DHT22;8594;52.052;8.354;2024-01-11T04:10:31;-2.90;99.90
16955;DHT22;8594;52.052;8.354;2024-01-11T04:12:57;-3.10;99.90
16955;DHT22;8594;52.052;8.354;2024-01-11T04:15:25;-3.10;99.90
16955;DHT22;8594;52.052;8.354;2024-01-11T04:17:52;-3.20;99.90
16955;DHT22;8594;52.052;8.354;2024-01-11T04:20:18;-3.30;99.90
16955;DHT22;8594;52.052;8.354;2024-01-11T04:22:45;-3.40;99.90
16955;DHT22;8594;52.052;8.354;2024-01-11T04:25:13;-3.50;99.90
16955;DHT22;8594;52.052;8.354;2024-01-11T04:27:40;-3.50;99.90
16955;DHT22;8594;52.052;8.354;2024-01-11T04:30:07;-3.50;99.90
16955;DHT22;8594;52.052;8.354;2024-01-11T04:32:35;-3.60;99.90
16955;DHT22;8594;52.052;8.354;2024-01-11T04:35:03;-3.70;99.90
16955;DHT22;8594;52.052;8.354;2024-01-11T04:37:30;-3.70;99.90
16955;DHT22;8594;52.052;8.354;2024-01-11T04:39:57;-3.60;99.90
16955;DHT22;8594;52.052;8.354;2024-01-11T04:42:26;-3.50;99.90
16955;DHT22;8594;52.052;8.354;2024-01-11T04:44:53;-3.50;99.90
16955;DHT22;8594;52.052;8.354;2024-01-11T04:47:20;-3.70;99.90
16955;DHT22;8594;52.052;8.354;2024-01-11T04:49:47;-3.60;99.90
16955;DHT22;8594;52.052;8.354;2024-01-11T04:52:13;-3.50;99.90
16955;DHT22;8594;52.052;8.354;2024-01-11T04:54:40;-3.30;99.90
16955;DHT22;8594;52.052;8.354;2024-01-11T04:57:07;-3.20;99.90
16955;DHT22;8594;52.052;8.354;2024-01-11T04:59:35;-3.30;99.90
16955;DHT22;8594;52.052;8.354;2024-01-11T05:02:02;-3.60;99.90
16955;DHT22;8594;52.052;8.354;2024-01-11T05:04:28;-3.90;99.90
16955;DHT22;8594;52.052;8.354;2024-01-11T05:06:55;-3.90;99.90
16955;DHT22;8594;52.052;8.354;2024-01-11T05:09:22;-3.80;99.90
16955;DHT22;8594;52.052;8.354;2024-01-11T05:11:49;-3.70;99.90
16955;DHT22;8594;52.052;8.354;2024-01-11T05:14:15;-3.80;99.90
16955;DHT22;8594;52.052;8.354;2024-01-11T05:16:43;-3.80;99.90
16955;DHT22;8594;52.052;8.354;2024-01-11T05:19:10;-3.80;99.90
16955;DHT22;8594;52.052;8.354;2024-01-11T05:21:37;-3.50;99.90
16955;DHT22;8594;52.052;8.354;2024-01-11T05:24:04;-3.20;99.90
16955;DHT22;8594;52.052;8.354;2024-01-11T05:26:31;-3.40;99.90
16955;DHT22;8594;52.052;8.354;2024-01-11T05:28:58;-3.50;99.90
16955;DHT22;8594;52.052;8.354;2024-01-11T05:31:25;-3.60;99.90
16955;DHT22;8594;52.052;8.354;2024-01-11T05:33:53;-3.50;99.90
16955;DHT22;8594;52.052;8.354;2024-01-11T05:36:20;-3.40;99.90
16955;DHT22;8594;52.052;8.354;2024-01-11T05:38:47;-3.40;99.90
16955;DHT22;8594;52.052;8.354;2024-01-11T05:41:13;-3.40;99.90
16955;DHT22;8594;52.052;8.354;2024-01-11T05:43:40;-3.30;99.90
16955;DHT22;8594;52.052;8.354;2024-01-11T05:46:08;-3.20;99.90
16955;DHT22;8594;52.052;8.354;2024-01-11T05:48:34;-3.30;99.90
16955;DHT22;8594;52.052;8.354;2024-01-11T05:51:03;-3.30;99.90
16955;DHT22;8594;52.052;8.354;2024-01-11T05:53:29;-3.40;99.90
16955;DHT22;8594;52.052;8.354;2024-01-11T05:56:00;-3.50;99.90
16955;DHT22;8594;52.052;8.354;2024-01-11T05:58:28;-3.70;99.90
16955;DHT22;8594;52.052;8.354;2024-01-11T06:00:55;-3.60;99.90
16955;DHT22;8594;52.052;8.354;2024-01-11T06:03:22;-3.50;99.90
16955;DHT22;8594;52.052;8.354;2024-01-11T06:05:49;-3.70;99.90
16955;DHT22;8594;52.052;8.354;2024-01-11T06:08:17;-3.40;99.90
16955;DHT22;8594;52.052;8.354;2024-01-11T06:10:43;-3.00;99.90
16955;DHT22;8594;52.052;8.354;2024-01-11T06:13:10;-2.80;99.90
16955;DHT22;8594;52.052;8.354;2024-01-11T06:15:37;-3.00;99.90
16955;DHT22;8594;52.052;8.354;2024-01-11T06:18:04;-3.20;99.90
16955;DHT22;8594;52.052;8.354;2024-01-11T06:20:31;-3.20;99.90
16955;DHT22;8594;52.052;8.354;2024-01-11T06:22:57;-3.20;99.90
16955;DHT22;8594;52.052;8.354;2024-01-11T06:25:25;-3.30;99.90
16955;DHT22;8594;52.052;8.354;2024-01-11T06:27:53;-3.40;99.90
16955;DHT22;8594;52.052;8.354;2024-01-11T06:30:20;-3.50;99.90
16955;DHT22;8594;52.052;8.354;2024-01-11T06:32:47;-3.60;99.90
16955;DHT22;8594;52.052;8.354;2024-01-11T06:35:14;-3.60;99.90
16955;DHT22;8594;52.052;8.354;2024-01-11T06:37:41;-3.50;99.90
16955;DHT22;8594;52.052;8.354;2024-01-11T06:40:08;-3.80;99.90
16955;DHT22;8594;52.052;8.354;2024-01-11T06:42:37;-3.80;99.90
16955;DHT22;8594;52.052;8.354;2024-01-11T06:45:04;-3.80;99.90
16955;DHT22;8594;52.052;8.354;2024-01-11T06:47:32;-3.80;99.90
16955;DHT22;8594;52.052;8.354;2024-01-11T06:49:59;-3.80;99.90
16955;DHT22;8594;52.052;8.354;2024-01-11T06:52:26;-3.70;99.90
16955;DHT22;8594;52.052;8.354;2024-01-11T06:54:53;-3.70;99.90
16955;DHT22;8594;52.052;8.354;2024-01-11T06:57:20;-3.50;99.90
16955;DHT22;8594;52.052;8.354;2024-01-11T06:59:49;-3.60;99.90
16955;DHT22;8594;52.052;8.354;2024-01-11T07:02:16;-3.50;99.90
16955;DHT22;8594;52.052;8.354;2024-01-11T07:04:44;-3.50;99.90
16955;DHT22;8594;52.052;8.354;2024-01-11T07:07:11;-3.30;99.90
16955;DHT22;8594;52.052;8.354;2024-01-11T07:09:38;-3.20;99.90
16955;DHT22;8594;52.052;8.354;2024-01-11T07:12:05;-2.90;99.90
16955;DHT22;8594;52.052;8.354;2024-01-11T07:14:33;-2.90;99.90
16955;DHT22;8594;52.052;8.354;2024-01-11T07:17:01;-2.80;99.90
16955;DHT22;8594;52.052;8.354;2024-01-11T07:19:29;-2.80;99.90
16955;DHT22;8594;52.052;8.354;2024-01-11T07:21:56;-2.80;99.90
16955;DHT22;8594;52.052;8.354;2024-01-11T07:24:23;-3.10;99.90
16955;DHT22;8594;52.052;8.354;2024-01-11T07:26:50;-3.20;99.90
16955;DHT22;8594;52.052;8.354;2024-01-11T07:29:18;-3.00;99.90
16955;DHT22;8594;52.052;8.354;2024-01-11T07:31:45;-3.00;99.90
16955;DHT22;8594;52.052;8.354;2024-01-11T07:34:13;-2.90;99.90
16955;DHT22;8594;52.052;8.354;2024-01-11T07:36:40;-3.00;99.90
16955;DHT22;8594;52.052;8.354;2024-01-11T07:39:06;-3.10;99.90
16955;DHT22;8594;52.052;8.354;2024-01-11T07:41:33;-3.10;99.90
16955;DHT22;8594;52.052;8.354;2024-01-11T07:44:00;-3.20;99.90
16955;DHT22;8594;52.052;8.354;2024-01-11T07:46:26;-3.10;99.90
16955;DHT22;8594;52.052;8.354;2024-01-11T07:48:53;-2.90;99.90
16955;DHT22;8594;52.052;8.354;2024-01-11T07:51:21;-2.80;99.90
16955;DHT22;8594;52.052;8.354;2024-01-11T07:53:48;-2.70;99.90
16955;DHT22;8594;52.052;8.354;2024-01-11T07:56:14;-2.40;99.90
16955;DHT22;8594;52.052;8.354;2024-01-11T07:58:42;-2.50;99.90
16955;DHT22;8594;52.052;8.354;2024-01-11T08:01:09;-2.50;99.90
16955;DHT22;8594;52.052;8.354;2024-01-11T08:03:36;-2.60;99.90
16955;DHT22;8594;52.052;8.354;2024-01-11T08:06:04;-2.80;99.90
16955;DHT22;8594;52.052;8.354;2024-01-11T08:08:34;-2.70;99.90
16955;DHT22;8594;52.052;8.354;2024-01-11T08:11:02;-2.30;99.90
16955;DHT22;8594;52.052;8.354;2024-01-11T08:13:29;-2.30;99.90
16955;DHT22;8594;52.052;8.354;2024-01-11T08:15:56;-2.50;99.90
16955;DHT22;8594;52.052;8.354;2024-01-11T08:18:23;-2.60;99.90
16955;DHT22;8594;52.052;8.354;2024-01-11T08:20:52;-2.40;99.90
16955;DHT22;8594;52.052;8.354;2024-01-11T08:23:18;-1.80;99.90
16955;DHT22;8594;52.052;8.354;2024-01-11T08:25:47;-1.30;99.90
16955;DHT22;8594;52.052;8.354;2024-01-11T08:28:14;-1.00;99.90
16955;DHT22;8594;52.052;8.354;2024-01-11T08:30:40;-0.60;99.90
16955;DHT22;8594;52.052;8.354;2024-01-11T08:33:08;-0.30;99.90
16955;DHT22;8594;52.052;8.354;2024-01-11T08:35:35;-0.40;99.90
16955;DHT22;8594;52.052;8.354;2024-01-11T08:38:02;-0.60;99.90
16955;DHT22;8594;52.052;8.354;2024-01-11T08:40:29;-0.50;99.90
16955;DHT22;8594;52.052;8.354;2024-01-11T08:42:57;-0.40;99.90
16955;DHT22;8594;52.052;8.354;2024-01-11T08:45:25;-0.20;99.90
16955;DHT22;8594;52.052;8.354;2024-01-11T08:47:51;-0.30;99.90
16955;DHT22;8594;52.052;8.354;2024-01-11T08:50:18;-0.50;99.90
16955;DHT22;8594;52.052;8.354;2024-01-11T08:52:47;-0.50;99.90
16955;DHT22;8594;52.052;8.354;2024-01-11T08:55:14;0.00;99.90
16955;DHT22;8594;52.052;8.354;2024-01-11T08:57:40;0.10;99.90
16955;DHT22;8594;52.052;8.354;2024-01-11T09:00:10;-0.10;99.90
16955;DHT22;8594;52.052;8.354;2024-01-11T09:02:37;0.00;99.90
16955;DHT22;8594;52.052;8.354;2024-01-11T09:05:04;0.40;99.90
16955;DHT22;8594;52.052;8.354;2024-01-11T09:07:32;0.70;99.90
16955;DHT22;8594;52.052;8.354;2024-01-11T09:09:59;0.90;99.90
16955;DHT22;8594;52.052;8.354;2024-01-11T09:12:26;1.10;99.90
16955;DHT22;8594;52.052;8.354;2024-01-11T09:14:52;1.20;99.90
16955;DHT22;8594;52.052;8.354;2024-01-11T09:17:21;1.20;99.90
16955;DHT22;8594;52.052;8.354;2024-01-11T09:19:48;1.20;99.90
16955;DHT22;8594;52.052;8.354;2024-01-11T09:22:15;2.00;99.90
16955;DHT22;8594;52.052;8.354;2024-01-11T09:24:41;2.30;99.90
16955;DHT22;8594;52.052;8.354;2024-01-11T09:27:08;2.60;99.90
16955;DHT22;8594;52.052;8.354;2024-01-11T09:29:35;2.90;99.90
16955;DHT22;8594;52.052;8.354;2024-01-11T09:32:02;2.40;99.90
16955;DHT22;8594;52.052;8.354;2024-01-11T09:34:30;2.50;99.90
16955;DHT22;8594;52.052;8.354;2024-01-11T09:36:57;2.60;99.90
16955;DHT22;8594;52.052;8.354;2024-01-11T09:39:24;3.00;99.90
16955;DHT22;8594;52.052;8.354;2024-01-11T09:41:58;3.30;99.90
16955;DHT22;8594;52.052;8.354;2024-01-11T09:44:27;3.50;99.90
16955;DHT22;8594;52.052;8.354;2024-01-11T09:46:57;3.70;99.90
16955;DHT22;8594;52.052;8.354;2024-01-11T09:49:27;3.80;99.90
16955;DHT22;8594;52.052;8.354;2024-01-11T09:51:57;3.60;99.90
16955;DHT22;8594;52.052;8.354;2024-01-11T09:54:25;3.60;99.90
16955;DHT22;8594;52.052;8.354;2024-01-11T09:56:53;4.10;99.90
16955;DHT22;8594;52.052;8.354;2024-01-11T09:59:21;4.40;99.90
16955;DHT22;8594;52.052;8.354;2024-01-11T10:01:50;4.30;99.90
16955;DHT22;8594;52.052;8.354;2024-01-11T10:04:18;4.30;99.90
16955;DHT22;8594;52.052;8.354;2024-01-11T10:06:46;4.10;99.90
16955;DHT22;8594;52.052;8.354;2024-01-11T10:09:13;4.20;99.90
16955;DHT22;8594;52.052;8.354;2024-01-11T10:11:41;3.70;99.90
16955;DHT22;8594;52.052;8.354;2024-01-11T10:14:12;3.50;99.90
16955;DHT22;8594;52.052;8.354;2024-01-11T10:16:38;3.40;99.90
16955;DHT22;8594;52.052;8.354;2024-01-11T10:19:05;3.20;99.90
16955;DHT22;8594;52.052;8.354;2024-01-11T10:21:32;3.20;99.90
16955;DHT22;8594;52.052;8.354;2024-01-11T10:24:01;3.10;99.90
16955;DHT22;8594;52.052;8.354;2024-01-11T10:26:30;2.60;99.90
16955;DHT22;8594;52.052;8.354;2024-01-11T10:28:59;2.60;99.90
16955;DHT22;8594;52.052;8.354;2024-01-11T10:31:28;2.70;99.90
16955;DHT22;8594;52.052;8.354;2024-01-11T10:33:55;2.40;99.90
16955;DHT22;8594;52.052;8.354;2024-01-11T10:36:23;2.50;99.90
16955;DHT22;8594;52.052;8.354;2024-01-11T10:38:50;2.50;99.90
16955;DHT22;8594;52.052;8.354;2024-01-11T10:41:20;2.50;99.90
16955;DHT22;8594;52.052;8.354;2024-01-11T10:43:48;2.10;99.90
16955;DHT22;8594;52.052;8.354;2024-01-11T10:46:18;2.00;99.90
16955;DHT22;8594;52.052;8.354;2024-01-11T10:48:49;2.30;99.90
16955;DHT22;8594;52.052;8.354;2024-01-11T10:51:23;2.30;99.90
16955;DHT22;8594;52.052;8.354;2024-01-11T10:53:55;2.30;99.90
16955;DHT22;8594;52.052;8.354;2024-01-11T10:56:23;2.40;99.90
16955;DHT22;8594;52.052;8.354;2024-01-11T10:58:53;2.20;99.90
16955;DHT22;8594;52.052;8.354;2024-01-11T11:01:22;2.60;99.90
16955;DHT22;8594;52.052;8.354;2024-01-11T11:03:51;2.80;99.90
16955;DHT22;8594;52.052;8.354;2024-01-11T11:06:22;2.80;99.90
16955;DHT22;8594;52.052;8.354;2024-01-11T11:08:50;2.30;99.90
16955;DHT22;8594;52.052;8.354;2024-01-11T11:11:19;2.30;99.90
16955;DHT22;8594;52.052;8.354;2024-01-11T11:13:49;2.00;99.90
16955;DHT22;8594;52.052;8.354;2024-01-11T11:16:18;1.90;99.90
16955;DHT22;8594;52.052;8.354;2024-01-11T11:18:45;2.10;99.90
16955;DHT22;8594;52.052;8.354;2024-01-11T11:21:12;2.20;99.90
16955;DHT22;8594;52.052;8.354;2024-01-11T11:23:38;2.40;99.90
16955;DHT22;8594;52.052;8.354;2024-01-11T11:26:06;2.30;99.90
16955;DHT22;8594;52.052;8.354;2024-01-11T11:28:34;2.40;99.90
16955;DHT22;8594;52.052;8.354;2024-01-11T11:31:03;2.40;99.90
16955;DHT22;8594;52.052;8.354;2024-01-11T11:33:30;2.30;99.90
16955;DHT22;8594;52.052;8.354;2024-01-11T11:35:58;2.50;99.90
16955;DHT22;8594;52.052;8.354;2024-01-11T11:38:26;2.30;99.90
16955;DHT22;8594;52.052;8.354;2024-01-11T11:40:57;2.10;99.90
16955;DHT22;8594;52.052;8.354;2024-01-11T11:43:26;2.10;99.90
16955;DHT22;8594;52.052;8.354;2024-01-11T11:45:54;2.10;99.90
16955;DHT22;8594;52.052;8.354;2024-01-11T11:48:50;2.00;99.90
16955;DHT22;8594;52.052;8.354;2024-01-11T11:51:21;2.00;99.90
16955;DHT22;8594;52.052;8.354;2024-01-11T11:53:49;2.00;99.90
16955;DHT22;8594;52.052;8.354;2024-01-11T11:56:18;2.00;99.90
16955;DHT22;8594;52.052;8.354;2024-01-11T11:58:46;2.00;99.90
16955;DHT22;8594;52.052;8.354;2024-01-11T12:01:15;2.20;99.90
16955;DHT22;8594;52.052;8.354;2024-01-11T12:03:44;2.20;99.90
16955;DHT22;8594;52.052;8.354;2024-01-11T12:06:16;2.20;99.90
16955;DHT22;8594;52.052;8.354;2024-01-11T12:08:44;2.10;99.90
16955;DHT22;8594;52.052;8.354;2024-01-11T12:11:17;2.30;99.90
16955;DHT22;8594;52.052;8.354;2024-01-11T12:13:46;2.50;99.90
16955;DHT22;8594;52.052;8.354;2024-01-11T12:16:13;2.60;99.90
16955;DHT22;8594;52.052;8.354;2024-01-11T12:18:40;2.50;99.90
16955;DHT22;8594;52.052;8.354;2024-01-11T12:21:08;2.50;99.90
16955;DHT22;8594;52.052;8.354;2024-01-11T12:23:37;2.40;99.90
16955;DHT22;8594;52.052;8.354;2024-01-11T12:26:06;2.60;99.90
16955;DHT22;8594;52.052;8.354;2024-01-11T12:28:38;2.60;99.90
16955;DHT22;8594;52.052;8.354;2024-01-11T12:31:06;2.70;99.90
16955;DHT22;8594;52.052;8.354;2024-01-11T12:33:33;2.80;99.90
16955;DHT22;8594;52.052;8.354;2024-01-11T12:36:04;2.80;99.90
16955;DHT22;8594;52.052;8.354;2024-01-11T12:38:33;2.90;99.90
16955;DHT22;8594;52.052;8.354;2024-01-11T12:41:02;2.80;99.90
16955;DHT22;8594;52.052;8.354;2024-01-11T12:43:29;2.80;99.90
16955;DHT22;8594;52.052;8.354;2024-01-11T12:45:56;2.70;99.90
16955;DHT22;8594;52.052;8.354;2024-01-11T12:48:23;2.60;99.90
16955;DHT22;8594;52.052;8.354;2024-01-11T12:50:50;2.70;99.90
16955;DHT22;8594;52.052;8.354;2024-01-11T12:53:19;2.80;99.90
16955;DHT22;8594;52.052;8.354;2024-01-11T12:55:48;2.90;99.90
16955;DHT22;8594;52.052;8.354;2024-01-11T12:58:28;3.00;99.90
16955;DHT22;8594;52.052;8.354;2024-01-11T13:00:55;2.90;99.90
16955;DHT22;8594;52.052;8.354;2024-01-11T13:03:24;3.00;99.90
16955;DHT22;8594;52.052;8.354;2024-01-11T13:05:52;3.10;99.90
16955;DHT22;8594;52.052;8.354;2024-01-11T13:08:19;2.90;99.90
16955;DHT22;8594;52.052;8.354;2024-01-11T13:10:47;2.90;99.90
16955;DHT22;8594;52.052;8.354;2024-01-11T13:13:14;2.80;99.90
16955;DHT22;8594;52.052;8.354;2024-01-11T13:15:41;2.80;99.90
16955;DHT22;8594;52.052;8.354;2024-01-11T13:18:07;2.60;99.90
16955;DHT22;8594;52.052;8.354;2024-01-11T13:20:34;2.50;99.90
16955;DHT22;8594;52.052;8.354;2024-01-11T13:23:14;2.60;99.90
16955;DHT22;8594;52.052;8.354;2024-01-11T13:25:46;2.60;99.90
16955;DHT22;8594;52.052;8.354;2024-01-11T13:28:15;2.60;99.90
16955;DHT22;8594;52.052;8.354;2024-01-11T13:30:43;2.60;99.90
16955;DHT22;8594;52.052;8.354;2024-01-11T13:33:11;2.50;99.90
16955;DHT22;8594;52.052;8.354;2024-01-11T13:35:39;2.50;99.90
16955;DHT22;8594;52.052;8.354;2024-01-11T13:38:08;2.30;99.90
16955;DHT22;8594;52.052;8.354;2024-01-11T13:40:35;2.50;99.90
16955;DHT22;8594;52.052;8.354;2024-01-11T13:43:05;2.60;99.90
16955;DHT22;8594;52.052;8.354;2024-01-11T13:45:31;2.50;99.90
16955;DHT22;8594;52.052;8.354;2024-01-11T13:48:02;2.50;99.90
16955;DHT22;8594;52.052;8.354;2024-01-11T13:50:30;2.60;99.90
16955;DHT22;8594;52.052;8.354;2024-01-11T13:52:56;2.60;99.90
16955;DHT22;8594;52.052;8.354;2024-01-11T13:55:23;2.60;99.90
16955;DHT22;8594;52.052;8.354;2024-01-11T13:57:50;2.70;99.90
16955;DHT22;8594;52.052;8.354;2024-01-11T14:00:20;2.60;99.90
16955;DHT22;8594;52.052;8.354;2024-01-11T14:02:47;2.60;99.90
16955;DHT22;8594;52.052;8.354;2024-01-11T14:05:14;2.70;99.90
16955;DHT22;8594;52.052;8.354;2024-01-11T14:07:43;2.70;99.90
16955;DHT22;8594;52.052;8.354;2024-01-11T14:10:11;2.70;99.90
16955;DHT22;8594;52.052;8.354;2024-01-11T14:12:39;2.80;99.90
16955;DHT22;8594;52.052;8.354;2024-01-11T14:15:08;2.80;99.90
16955;DHT22;8594;52.052;8.354;2024-01-11T14:17:38;2.70;99.90
16955;DHT22;8594;52.052;8.354;2024-01-11T14:20:07;2.70;99.90
16955;DHT22;8594;52.052;8.354;2024-01-11T14:22:38;2.80;99.90
16955;DHT22;8594;52.052;8.354;2024-01-11T14:25:05;2.80;99.90
16955;DHT22;8594;52.052;8.354;2024-01-11T14:27:33;2.80;99.90
16955;DHT22;8594;52.052;8.354;2024-01-11T14:30:00;2.80;99.90
16955;DHT22;8594;52.052;8.354;2024-01-11T14:32:30;2.70;99.90
16955;DHT22;8594;52.052;8.354;2024-01-11T14:34:58;2.70;99.90
16955;DHT22;8594;52.052;8.354;2024-01-11T14:37:29;2.70;99.90
16955;DHT22;8594;52.052;8.354;2024-01-11T14:39:56;2.80;99.90
16955;DHT22;8594;52.052;8.354;2024-01-11T14:42:23;2.70;99.90
16955;DHT22;8594;52.052;8.354;2024-01-11T14:44:50;2.80;99.90
16955;DHT22;8594;52.052;8.354;2024-01-11T14:47:17;2.80;99.90
16955;DHT22;8594;52.052;8.354;2024-01-11T14:49:44;2.90;99.90
16955;DHT22;8594;52.052;8.354;2024-01-11T14:52:13;2.80;99.90
16955;DHT22;8594;52.052;8.354;2024-01-11T14:54:39;2.80;99.90
16955;DHT22;8594;52.052;8.354;2024-01-11T14:57:06;2.80;99.90
16955;DHT22;8594;52.052;8.354;2024-01-11T14:59:33;2.80;99.90
16955;DHT22;8594;52.052;8.354;2024-01-11T15:02:00;2.80;99.90
16955;DHT22;8594;52.052;8.354;2024-01-11T15:04:27;2.80;99.90
16955;DHT22;8594;52.052;8.354;2024-01-11T15:06:53;2.70;99.90
16955;DHT22;8594;52.052;8.354;2024-01-11T15:09:22;2.70;99.90
16955;DHT22;8594;52.052;8.354;2024-01-11T15:11:51;2.70;99.90
16955;DHT22;8594;52.052;8.354;2024-01-11T15:14:18;2.60;99.90
16955;DHT22;8594;52.052;8.354;2024-01-11T15:16:45;2.60;99.90
16955;DHT22;8594;52.052;8.354;2024-01-11T15:19:13;2.50;99.90
16955;DHT22;8594;52.052;8.354;2024-01-11T15:21:40;2.50;99.90
16955;DHT22;8594;52.052;8.354;2024-01-11T15:24:07;2.50;99.90
16955;DHT22;8594;52.052;8.354;2024-01-11T15:26:35;2.40;99.90
16955;DHT22;8594;52.052;8.354;2024-01-11T15:29:02;2.40;99.90
16955;DHT22;8594;52.052;8.354;2024-01-11T15:31:29;2.40;99.90
16955;DHT22;8594;52.052;8.354;2024-01-11T15:33:55;2.50;99.90
16955;DHT22;8594;52.052;8.354;2024-01-11T15:36:23;2.50;99.90
16955;DHT22;8594;52.052;8.354;2024-01-11T15:38:52;2.50;99.90
16955;DHT22;8594;52.052;8.354;2024-01-11T15:41:19;2.50;99.90
16955;DHT22;8594;52.052;8.354;2024-01-11T15:43:47;2.50;99.90
16955;DHT22;8594;52.052;8.354;2024-01-11T15:46:15;2.50;99.90
16955;DHT22;8594;52.052;8.354;2024-01-11T15:48:42;2.40;99.90
16955;DHT22;8594;52.052;8.354;2024-01-11T15:51:09;2.30;99.90
16955;DHT22;8594;52.052;8.354;2024-01-11T15:53:36;2.40;99.90